Time;durP1;ratioP1;P1;durP2;ratioP2;P2;SDS_P1;SDS_P2;PMS_P1;PMS_P2;Temp;Humidity;BMP_temperature;BMP_pressure;BME280_temperature;BME280_humidity;BME280_pressure;Samples;Min_cycle;Max_cycle;Signal;HPM_P1;HPM_P2
2023/12/05 00:01:47;;;;;;;35.90;19.70;;;;;;;2.75;80.70;101714.11;108153;1288;21989;-61
2023/12/05 00:04:12;;;;;;;31.20;18.10;;;;;;;2.74;80.56;101716.65;107302;1283;1003031;-60
2023/12/05 00:06:38;;;;;;;34.40;18.30;;;;;;;2.74;80.48;101718.02;107323;1277;1003159;-63
2023/12/05 00:09:04;;;;;;;31.20;17.10;;;;;;;2.73;80.87;101717.65;107364;1283;1006464;-60
2023/12/05 00:11:29;;;;;;;29.40;16.70;;;;;;;2.74;80.91;101721.50;107219;1289;1002315;-62
2023/12/05 00:13:55;;;;;;;31.70;17.50;;;;;;;2.77;81.13;101720.23;107207;1289;1002524;-63
2023/12/05 00:16:20;;;;;;;31.50;18.80;;;;;;;2.74;80.74;101726.03;107139;1289;1002930;-61
2023/12/05 00:18:49;;;;;;;29.50;18.20;;;;;;;2.70;80.23;101730.16;107128;1286;1003000;-62
2023/12/05 00:21:16;;;;;;;26.90;17.00;;;;;;;2.66;80.08;101731.05;107222;1289;1003182;-60
2023/12/05 00:23:42;;;;;;;31.70;18.90;;;;;;;2.64;80.04;101731.17;107949;1287;22005;-64
2023/12/05 00:26:07;;;;;;;34.60;19.70;;;;;;;2.63;80.11;101732.14;107200;1280;1003134;-63
2023/12/05 00:28:33;;;;;;;29.70;17.60;;;;;;;2.63;80.25;101731.99;107208;1289;1002933;-63
2023/12/05 00:30:58;;;;;;;32.30;18.60;;;;;;;2.64;80.72;101729.10;107894;1286;21992;-63
2023/12/05 00:33:24;;;;;;;33.80;18.40;;;;;;;2.66;80.87;101732.27;107893;1289;22455;-60
2023/12/05 00:35:50;;;;;;;37.90;19.70;;;;;;;2.67;81.08;101734.94;107943;1289;23042;-62
2023/12/05 00:38:15;;;;;;;34.90;19.30;;;;;;;2.72;81.38;101730.09;107898;1289;21999;-60
2023/12/05 00:40:41;;;;;;;28.20;15.70;;;;;;;2.76;81.41;101726.80;107889;1284;22000;-64
2023/12/05 00:43:06;;;;;;;31.50;16.80;;;;;;;2.76;81.20;101726.95;107160;1289;1002371;-60
2023/12/05 00:45:32;;;;;;;28.80;15.20;;;;;;;2.75;80.77;101727.25;107906;1289;22540;-62
2023/12/05 00:47:57;;;;;;;30.00;17.10;;;;;;;2.72;80.55;101722.80;107897;1288;22463;-60
2023/12/05 00:50:23;;;;;;;31.30;17.00;;;;;;;2.70;80.49;101718.75;107906;1283;22000;-60
2023/12/05 00:52:49;;;;;;;30.30;16.70;;;;;;;2.69;80.34;101715.23;107887;1288;21997;-60
2023/12/05 00:55:14;;;;;;;31.90;17.30;;;;;;;2.66;80.37;101715.45;107926;1289;21992;-63
2023/12/05 00:57:40;;;;;;;33.40;17.10;;;;;;;2.62;80.24;101714.61;107852;1280;21992;-60
2023/12/05 01:00:10;;;;;;;28.70;17.00;;;;;;;2.60;80.29;101714.70;107978;1289;21992;-60
2023/12/05 01:02:36;;;;;;;31.50;16.80;;;;;;;2.59;80.42;101714.63;108035;1289;21990;-63
2023/12/05 01:05:02;;;;;;;31.90;16.80;;;;;;;2.56;80.02;101711.91;108072;1280;24339;-64
2023/12/05 01:07:28;;;;;;;28.00;16.50;;;;;;;2.52;79.83;101712.80;108076;1284;21985;-64
2023/12/05 01:09:54;;;;;;;30.30;17.40;;;;;;;2.49;79.79;101712.34;108089;1277;21987;-63
2023/12/05 01:12:19;;;;;;;32.40;17.60;;;;;;;2.46;79.88;101714.61;108084;1288;22027;-62
2023/12/05 01:14:45;;;;;;;32.40;18.20;;;;;;;2.44;79.98;101712.78;108080;1283;21998;-60
2023/12/05 01:17:11;;;;;;;36.30;19.20;;;;;;;2.41;79.95;101713.91;107324;1285;1002399;-60
2023/12/05 01:19:38;;;;;;;32.80;17.90;;;;;;;2.36;79.31;101713.86;108063;1277;21999;-60
2023/12/05 01:22:04;;;;;;;32.10;18.30;;;;;;;2.30;79.06;101713.27;109959;1288;21902;-61
2023/12/05 01:24:32;;;;;;;36.10;19.30;;;;;;;2.24;79.03;101711.45;108229;1280;23052;-60
2023/12/05 01:26:57;;;;;;;32.30;17.70;;;;;;;2.21;79.22;101709.08;107415;1286;1002661;-60
2023/12/05 01:29:23;;;;;;;31.90;18.00;;;;;;;2.21;79.62;101705.77;108073;1284;21990;-64
2023/12/05 01:31:48;;;;;;;32.70;18.10;;;;;;;2.19;79.42;101702.23;108079;1288;21982;-63
2023/12/05 01:34:14;;;;;;;32.90;17.50;;;;;;;2.17;79.33;101699.88;108076;1283;21989;-60
2023/12/05 01:36:39;;;;;;;34.30;18.20;;;;;;;2.16;79.60;101694.50;108093;1289;21989;-60
2023/12/05 01:39:05;;;;;;;30.90;16.50;;;;;;;2.18;79.75;101686.09;108073;1288;21984;-63
2023/12/05 01:41:31;;;;;;;31.20;16.70;;;;;;;2.19;79.75;101686.50;108071;1289;21986;-60
2023/12/05 01:43:56;;;;;;;32.40;16.50;;;;;;;2.16;79.39;101687.05;108105;1288;21988;-63
2023/12/05 01:46:22;;;;;;;34.60;17.80;;;;;;;2.14;79.26;101688.85;107979;1289;22023;-60
2023/12/05 01:48:48;;;;;;;36.70;18.40;;;;;;;2.11;79.24;101689.77;107811;1288;22460;-64
2023/12/05 01:51:13;;;;;;;34.40;17.20;;;;;;;2.08;79.30;101690.00;107808;1280;22460;-63
2023/12/05 01:53:39;;;;;;;29.70;16.40;;;;;;;2.06;79.52;101691.13;108080;1288;21992;-60
2023/12/05 01:56:06;;;;;;;32.00;16.50;;;;;;;2.05;79.56;101692.63;108035;1289;22005;-64
2023/12/05 01:58:31;;;;;;;29.10;15.20;;;;;;;2.05;79.55;101690.35;107929;1289;21992;-63
2023/12/05 02:00:57;;;;;;;24.90;13.50;;;;;;;2.05;79.78;101687.41;107864;1288;21993;-65
2023/12/05 02:03:22;;;;;;;25.70;14.20;;;;;;;2.06;80.17;101688.02;107834;1287;22001;-61
2023/12/05 02:05:48;;;;;;;38.20;17.70;;;;;;;2.07;80.32;101693.73;108034;1287;21990;-62
2023/12/05 02:08:14;;;;;;;52.30;19.50;;;;;;;2.01;79.28;101695.92;107819;1280;21997;-60
2023/12/05 02:10:39;;;;;;;55.80;23.60;;;;;;;1.95;78.86;101701.01;107802;1289;21989;-60
2023/12/05 02:13:05;;;;;;;53.20;22.80;;;;;;;1.88;78.50;101697.61;107964;1289;21992;-60
2023/12/05 02:15:32;;;;;;;41.30;17.50;;;;;;;1.82;78.18;101695.39;107959;1289;21988;-64
2023/12/05 02:18:09;;;;;;;35.30;16.20;;;;;;;1.75;78.47;101690.26;107999;1289;21989;-63
2023/12/05 02:21:12;;;;;;;44.90;19.40;;;;;;;1.72;78.60;101689.77;107958;1286;21992;-64
2023/12/05 02:23:59;;;;;;;42.40;18.00;;;;;;;1.69;79.15;101686.17;106793;1289;1003297;-60
2023/12/05 02:26:52;;;;;;;37.70;16.40;;;;;;;1.64;79.09;101681.66;107981;1287;21998;-64
2023/12/05 02:29:18;;;;;;;32.70;16.60;;;;;;;1.61;79.04;101676.15;107970;1289;21996;-60
2023/12/05 02:31:43;;;;;;;30.90;15.40;;;;;;;1.59;79.02;101672.77;108005;1287;21992;-61
2023/12/05 02:34:09;;;;;;;29.10;14.70;;;;;;;1.58;79.15;101670.98;108004;1289;21995;-64
2023/12/05 02:36:41;;;;;;;32.50;16.20;;;;;;;1.57;79.09;101668.38;107972;1280;22027;-63
2023/12/05 02:39:30;;;;;;;26.50;13.70;;;;;;;1.57;79.44;101664.21;107987;1289;23086;-63
2023/12/05 02:41:56;;;;;;;31.00;15.30;;;;;;;1.58;78.75;101663.20;108017;1289;21990;-60
2023/12/05 02:44:27;;;;;;;27.90;14.20;;;;;;;1.56;78.42;101661.55;107964;1286;21985;-60
2023/12/05 02:46:52;;;;;;;26.60;13.80;;;;;;;1.55;78.08;101658.07;108021;1289;22011;-60
2023/12/05 02:49:18;;;;;;;26.80;12.70;;;;;;;1.48;78.79;101660.02;107866;1289;21994;-63
2023/12/05 02:51:43;;;;;;;26.40;13.40;;;;;;;1.45;78.97;101660.23;107747;1284;21990;-60
2023/12/05 02:54:09;;;;;;;25.00;13.00;;;;;;;1.49;78.82;101661.95;107254;1280;1002499;-59
2023/12/05 02:56:37;;;;;;;23.60;12.80;;;;;;;1.49;78.69;101661.77;107275;1289;1003010;-63
2023/12/05 02:59:04;;;;;;;24.30;12.30;;;;;;;1.43;78.95;101660.79;108004;1284;22002;-64
2023/12/05 03:01:29;;;;;;;25.20;12.40;;;;;;;1.39;79.13;101661.98;108053;1283;22019;-63
2023/12/05 03:03:59;;;;;;;23.40;12.70;;;;;;;1.41;78.86;101662.77;108029;1287;22003;-60
2023/12/05 03:06:27;;;;;;;22.20;11.70;;;;;;;1.41;78.56;101656.54;108074;1289;21998;-64
2023/12/05 03:08:52;;;;;;;22.40;11.50;;;;;;;1.41;78.61;101655.19;108079;1284;22029;-60
2023/12/05 03:11:18;;;;;;;21.50;10.20;;;;;;;1.39;79.13;101654.23;108008;1289;21998;-60
2023/12/05 03:13:43;;;;;;;18.70;10.30;;;;;;;1.42;79.55;101657.14;107982;1286;21995;-63
2023/12/05 03:16:09;;;;;;;18.40;9.90;;;;;;;1.42;79.79;101657.30;107977;1280;21999;-60
2023/12/05 03:18:35;;;;;;;20.70;11.00;;;;;;;1.43;79.59;101650.59;107734;1289;21992;-60
2023/12/05 03:21:01;;;;;;;18.50;10.50;;;;;;;1.41;79.47;101646.19;107973;1287;22002;-60
2023/12/05 03:23:26;;;;;;;19.90;10.80;;;;;;;1.41;79.68;101643.23;107953;1289;21995;-64
2023/12/05 03:25:52;;;;;;;21.20;11.40;;;;;;;1.40;79.71;101641.61;108042;1284;22003;-64
2023/12/05 03:28:17;;;;;;;18.90;11.00;;;;;;;1.40;79.56;101639.39;107198;1286;1002972;-64
2023/12/05 03:30:43;;;;;;;19.70;10.40;;;;;;;1.39;79.45;101637.24;107227;1289;1002832;-64
2023/12/05 03:33:08;;;;;;;23.40;12.40;;;;;;;1.36;79.47;101641.09;107939;1289;21988;-64
2023/12/05 03:35:34;;;;;;;21.90;11.60;;;;;;;1.32;79.30;101639.23;107986;1289;21987;-63
2023/12/05 03:38:00;;;;;;;22.10;12.40;;;;;;;1.31;79.26;101640.23;107948;1289;21996;-59
2023/12/05 03:40:25;;;;;;;23.20;11.80;;;;;;;1.31;79.08;101643.35;107945;1288;21996;-60
2023/12/05 03:42:51;;;;;;;20.40;10.90;;;;;;;1.28;78.79;101643.52;108116;1289;22063;-60
2023/12/05 03:45:16;;;;;;;22.40;12.00;;;;;;;1.30;78.75;101645.53;108031;1288;21992;-60
2023/12/05 03:47:42;;;;;;;21.60;12.80;;;;;;;1.25;78.84;101644.45;108025;1288;22030;-60
2023/12/05 03:50:08;;;;;;;24.00;12.40;;;;;;;1.25;79.49;101644.06;108025;1288;21997;-63
2023/12/05 03:52:34;;;;;;;23.50;12.20;;;;;;;1.25;79.41;101637.86;108068;1284;21986;-63
2023/12/05 03:54:59;;;;;;;22.20;12.40;;;;;;;1.24;79.26;101632.48;108067;1280;23718;-60
2023/12/05 03:57:25;;;;;;;24.60;14.40;;;;;;;1.23;79.28;101628.95;108055;1288;25201;-63
2023/12/05 03:59:50;;;;;;;22.00;11.20;;;;;;;1.22;79.17;101629.25;108057;1284;21997;-60
2023/12/05 04:02:16;;;;;;;22.20;12.80;;;;;;;1.22;79.32;101625.95;108099;1278;21991;-64
2023/12/05 04:04:41;;;;;;;23.40;12.00;;;;;;;1.23;79.79;101623.09;107272;1284;1003216;-64
2023/12/05 04:07:07;;;;;;;22.20;12.20;;;;;;;1.28;80.30;101623.84;107313;1288;1002467;-64
2023/12/05 04:09:33;;;;;;;20.50;10.80;;;;;;;1.34;80.44;101621.33;108017;1288;21987;-60
2023/12/05 04:11:58;;;;;;;18.20;10.00;;;;;;;1.39;80.42;101615.81;108075;1288;22102;-60
2023/12/05 04:14:24;;;;;;;20.40;11.10;;;;;;;1.44;80.57;101616.75;107319;1282;1002560;-64
2023/12/05 04:16:50;;;;;;;18.40;10.30;;;;;;;1.49;80.90;101616.27;107317;1281;1003098;-60
2023/12/05 04:19:15;;;;;;;18.50;10.10;;;;;;;1.53;80.93;101613.32;107303;1288;1002252;-60
2023/12/05 04:21:41;;;;;;;19.50;10.60;;;;;;;1.57;81.22;101606.73;107283;1288;1002945;-60
2023/12/05 04:24:07;;;;;;;21.30;10.90;;;;;;;1.62;81.59;101600.04;107295;1287;1002396;-61
2023/12/05 04:26:33;;;;;;;23.50;12.30;;;;;;;1.68;82.08;101598.23;108107;1287;22933;-60
2023/12/05 04:28:58;;;;;;;33.90;13.60;;;;;;;1.76;82.64;101598.75;108045;1288;21990;-60
2023/12/05 04:31:25;;;;;;;21.10;12.40;;;;;;;1.86;83.07;101596.41;108024;1280;21989;-63
2023/12/05 04:33:51;;;;;;;20.00;11.70;;;;;;;1.89;82.76;101589.81;108050;1285;22156;-60
2023/12/05 04:36:17;;;;;;;25.80;13.80;;;;;;;1.90;82.75;101589.34;108005;1280;21992;-60
2023/12/05 04:38:42;;;;;;;22.90;13.10;;;;;;;1.90;82.44;101593.48;108054;1277;21995;-60
2023/12/05 04:41:08;;;;;;;25.60;13.80;;;;;;;1.92;82.85;101589.95;108053;1288;21993;-63
2023/12/05 04:43:33;;;;;;;22.00;12.30;;;;;;;1.94;82.79;101583.95;108111;1288;21989;-60
2023/12/05 04:45:59;;;;;;;21.90;12.60;;;;;;;1.96;82.86;101582.64;108069;1288;21981;-60
2023/12/05 04:48:25;;;;;;;24.30;13.20;;;;;;;1.99;83.14;101583.12;108083;1288;21990;-63
2023/12/05 04:50:50;;;;;;;21.30;12.10;;;;;;;2.02;83.19;101590.52;108142;1288;21992;-60
2023/12/05 04:53:16;;;;;;;20.60;12.40;;;;;;;2.05;83.36;101589.42;108090;1288;21995;-63
2023/12/05 04:55:41;;;;;;;21.20;13.00;;;;;;;2.09;83.26;101584.04;108099;1288;21990;-60
2023/12/05 04:58:07;;;;;;;22.10;12.40;;;;;;;2.14;83.32;101581.66;107345;1284;1002873;-62
2023/12/05 05:00:34;;;;;;;23.50;12.50;;;;;;;2.19;83.65;101578.74;107443;1280;1002582;-60
2023/12/05 05:02:59;;;;;;;21.10;12.20;;;;;;;2.22;83.78;101580.27;108048;1289;22030;-60
2023/12/05 05:05:25;;;;;;;21.00;12.40;;;;;;;2.25;83.61;101580.17;107254;1283;1002417;-63
2023/12/05 05:07:50;;;;;;;24.20;12.80;;;;;;;2.26;83.69;101578.34;107294;1288;1002368;-59
2023/12/05 05:10:16;;;;;;;23.60;13.70;;;;;;;2.28;83.59;101573.91;107821;1288;23736;-64
2023/12/05 05:12:41;;;;;;;21.90;11.90;;;;;;;2.30;83.70;101566.73;107870;1289;21990;-60
2023/12/05 05:15:09;;;;;;;19.00;11.90;;;;;;;2.34;83.88;101566.20;108032;1288;25482;-62
2023/12/05 05:17:34;;;;;;;26.10;11.90;;;;;;;2.38;84.11;101565.86;107996;1289;21996;-60
2023/12/05 05:20:00;;;;;;;21.60;11.60;;;;;;;2.43;84.21;101569.83;107985;1288;21979;-62
2023/12/05 05:22:26;;;;;;;21.40;12.60;;;;;;;2.47;84.48;101573.11;107998;1289;21992;-62
2023/12/05 05:24:52;;;;;;;21.00;11.70;;;;;;;2.52;84.79;101574.52;108010;1289;21995;-61
2023/12/05 05:27:17;;;;;;;29.50;12.80;;;;;;;2.58;84.99;101575.27;107957;1289;22000;-60
2023/12/05 05:29:43;;;;;;;24.70;12.00;;;;;;;2.64;85.41;101572.21;107968;1289;21992;-61
2023/12/05 05:32:09;;;;;;;32.10;12.60;;;;;;;2.70;85.28;101568.63;108004;1289;21990;-61
2023/12/05 05:34:34;;;;;;;23.50;12.20;;;;;;;2.73;84.97;101565.13;107951;1289;21989;-63
2023/12/05 05:37:00;;;;;;;24.40;13.20;;;;;;;2.75;84.74;101560.01;107984;1289;21992;-62
2023/12/05 05:39:26;;;;;;;20.40;12.00;;;;;;;2.77;84.52;101554.16;107967;1288;22010;-63
2023/12/05 05:41:51;;;;;;;21.90;11.90;;;;;;;2.75;84.22;101550.29;107988;1287;22027;-64
2023/12/05 05:44:17;;;;;;;23.90;12.60;;;;;;;2.74;84.29;101551.64;107260;1281;1002638;-63
2023/12/05 05:46:42;;;;;;;23.00;12.40;;;;;;;2.75;84.37;101554.79;107255;1289;1003027;-61
2023/12/05 05:49:08;;;;;;;25.00;12.30;;;;;;;2.79;84.64;101556.67;107950;1284;22185;-63
2023/12/05 05:51:34;;;;;;;19.50;11.80;;;;;;;2.83;85.00;101554.56;108008;1289;21992;-62
2023/12/05 05:53:59;;;;;;;28.00;12.10;;;;;;;2.87;84.97;101553.86;107962;1281;22454;-60
2023/12/05 05:56:25;;;;;;;22.70;11.50;;;;;;;2.88;84.83;101556.30;108028;1288;21998;-60
2023/12/05 05:58:50;;;;;;;21.10;12.70;;;;;;;2.89;84.83;101556.17;108005;1289;21992;-61
2023/12/05 06:01:16;;;;;;;19.00;11.90;;;;;;;2.93;85.02;101557.89;108086;1281;21987;-60
2023/12/05 06:03:42;;;;;;;19.60;11.10;;;;;;;2.95;84.92;101557.98;108018;1288;21990;-60
2023/12/05 06:06:08;;;;;;;22.10;12.50;;;;;;;2.97;84.99;101561.00;108039;1287;21990;-61
2023/12/05 06:08:34;;;;;;;19.70;11.70;;;;;;;3.00;85.12;101559.54;108033;1288;21977;-62
2023/12/05 06:11:00;;;;;;;20.80;11.80;;;;;;;3.02;85.35;101560.31;108025;1288;21990;-60
2023/12/05 06:13:26;;;;;;;25.00;12.90;;;;;;;3.05;85.46;101562.33;108091;1288;21984;-62
2023/12/05 06:15:52;;;;;;;21.60;12.10;;;;;;;3.08;85.56;101563.67;108045;1284;21990;-62
2023/12/05 06:18:18;;;;;;;20.30;11.60;;;;;;;3.09;85.61;101561.46;108052;1289;23740;-62
2023/12/05 06:20:44;;;;;;;19.70;11.70;;;;;;;3.13;85.65;101567.48;108062;1281;21995;-62
2023/12/05 06:23:09;;;;;;;23.20;12.50;;;;;;;3.19;86.02;101569.61;107249;1288;1002781;-62
2023/12/05 06:25:35;;;;;;;23.80;13.20;;;;;;;3.25;86.22;101568.64;107316;1284;1002632;-61
2023/12/05 06:28:00;;;;;;;23.30;13.20;;;;;;;3.33;86.34;101562.17;107301;1280;1007020;-62
2023/12/05 06:30:26;;;;;;;22.50;12.30;;;;;;;3.42;86.81;101563.36;107336;1286;1002764;-60
2023/12/05 06:32:52;;;;;;;22.50;12.10;;;;;;;3.54;87.46;101562.52;108067;1289;21986;-62
2023/12/05 06:35:17;;;;;;;20.70;11.20;;;;;;;3.65;87.82;101564.14;108068;1280;23052;-62
2023/12/05 06:37:43;;;;;;;24.30;12.80;;;;;;;3.76;88.21;101563.48;108091;1283;22045;-62
2023/12/05 06:40:09;;;;;;;23.20;12.20;;;;;;;3.89;88.15;101566.87;108081;1288;21992;-61
2023/12/05 06:42:36;;;;;;;27.50;12.90;;;;;;;3.98;88.58;101565.11;108094;1286;21983;-61
2023/12/05 06:45:03;;;;;;;23.40;11.20;;;;;;;4.09;88.67;101556.10;107896;1286;174777;-63
2023/12/05 06:47:29;;;;;;;22.60;12.10;;;;;;;4.20;88.87;101555.22;108082;1287;22021;-61
2023/12/05 06:49:54;;;;;;;20.60;11.10;;;;;;;4.30;89.01;101556.77;108020;1278;22047;-62
2023/12/05 06:52:20;;;;;;;19.60;11.40;;;;;;;4.40;89.10;101555.70;108062;1289;21989;-61
2023/12/05 06:54:45;;;;;;;17.70;10.80;;;;;;;4.51;89.49;101553.95;108057;1287;21991;-61
2023/12/05 06:57:11;;;;;;;23.40;10.50;;;;;;;4.63;89.94;101552.07;108067;1288;22033;-63
2023/12/05 06:59:38;;;;;;;21.10;10.80;;;;;;;4.74;89.86;101551.52;108079;1280;21989;-61
2023/12/05 07:02:04;;;;;;;23.10;11.60;;;;;;;4.83;89.91;101550.41;108091;1289;21991;-62
2023/12/05 07:04:30;;;;;;;20.10;10.80;;;;;;;4.92;89.89;101546.65;108073;1280;21989;-62
2023/12/05 07:06:56;;;;;;;18.90;10.30;;;;;;;5.00;89.90;101543.41;108056;1289;22033;-62
2023/12/05 07:09:22;;;;;;;20.80;10.50;;;;;;;5.06;90.01;101538.20;108132;1288;21997;-61
2023/12/05 07:11:47;;;;;;;16.40;10.30;;;;;;;5.14;90.14;101544.85;108070;1284;22764;-62
2023/12/05 07:14:13;;;;;;;16.90;10.30;;;;;;;5.22;90.17;101551.36;108054;1289;22071;-63
2023/12/05 07:16:39;;;;;;;23.20;10.10;;;;;;;5.28;90.01;101548.39;108048;1289;21989;-61
2023/12/05 07:19:04;;;;;;;19.20;10.10;;;;;;;5.34;90.02;101541.41;108018;1289;21998;-61
2023/12/05 07:21:30;;;;;;;18.30;9.90;;;;;;;5.40;89.98;101546.98;108086;1288;22032;-61
2023/12/05 07:23:56;;;;;;;21.20;10.70;;;;;;;5.45;90.17;101555.15;107304;1281;1002448;-61
2023/12/05 07:26:22;;;;;;;18.90;9.70;;;;;;;5.52;90.10;101552.70;108132;1287;22025;-62
2023/12/05 07:28:47;;;;;;;18.20;10.40;;;;;;;5.56;90.19;101539.76;108088;1288;22038;-62
2023/12/05 07:31:13;;;;;;;21.80;11.70;;;;;;;5.60;90.24;101538.30;108063;1288;22020;-62
2023/12/05 07:33:39;;;;;;;22.70;10.50;;;;;;;5.64;90.34;101537.37;108059;1289;21986;-61
2023/12/05 07:36:05;;;;;;;22.10;10.10;;;;;;;5.69;90.28;101533.66;108047;1288;21988;-61
2023/12/05 07:38:32;;;;;;;18.00;9.60;;;;;;;5.74;90.49;101529.09;108047;1288;22633;-62
2023/12/05 07:40:58;;;;;;;18.20;9.50;;;;;;;5.80;90.37;101527.31;108066;1288;22001;-61
2023/12/05 07:43:24;;;;;;;15.40;9.40;;;;;;;5.85;90.55;101526.07;108104;1288;22033;-61
2023/12/05 07:45:49;;;;;;;20.70;10.10;;;;;;;5.91;90.51;101529.69;108032;1289;23082;-62
2023/12/05 07:48:15;;;;;;;17.80;10.00;;;;;;;5.97;90.74;101533.32;108126;1284;21988;-61
2023/12/05 07:50:41;;;;;;;18.90;11.40;;;;;;;6.03;91.10;101523.76;107277;1278;1003155;-62
2023/12/05 07:53:07;;;;;;;20.10;12.10;;;;;;;6.13;92.00;101525.92;108130;1288;22011;-61
2023/12/05 07:55:33;;;;;;;19.90;11.30;;;;;;;6.24;92.48;101529.48;107957;1289;21995;-61
2023/12/05 07:57:58;;;;;;;21.00;11.60;;;;;;;6.35;93.20;101520.16;108089;1288;22006;-61
2023/12/05 08:00:24;;;;;;;19.80;10.70;;;;;;;6.45;93.45;101520.56;108095;1289;21992;-62
2023/12/05 08:02:50;;;;;;;20.80;11.70;;;;;;;6.56;93.37;101523.05;108090;1285;21975;-62
2023/12/05 08:05:16;;;;;;;19.10;11.00;;;;;;;6.63;93.30;101523.39;107883;1289;23732;-61
2023/12/05 08:07:41;;;;;;;18.60;10.80;;;;;;;6.65;92.72;101528.52;108115;1289;22043;-61
2023/12/05 08:10:08;;;;;;;17.70;12.00;;;;;;;6.67;92.43;101524.90;108081;1288;22009;-62
2023/12/05 08:12:34;;;;;;;16.90;11.80;;;;;;;6.72;92.77;101525.36;107381;1288;1002293;-62
2023/12/05 08:15:00;;;;;;;21.10;12.30;;;;;;;6.77;92.99;101530.70;108125;1288;22046;-63
2023/12/05 08:17:26;;;;;;;20.70;12.60;;;;;;;6.83;92.75;101539.71;108069;1288;21988;-62
2023/12/05 08:19:52;;;;;;;21.20;12.10;;;;;;;6.86;92.28;101539.77;108081;1288;21999;-64
2023/12/05 08:22:18;;;;;;;19.70;12.20;;;;;;;6.88;92.04;101532.84;108097;1286;22010;-62
2023/12/05 08:24:44;;;;;;;22.40;13.30;;;;;;;6.90;92.23;101521.38;108086;1278;21989;-63
2023/12/05 08:27:09;;;;;;;20.80;13.00;;;;;;;6.95;92.77;101519.38;108074;1288;21997;-64
2023/12/05 08:29:35;;;;;;;21.90;13.00;;;;;;;6.99;93.10;101515.63;108067;1283;21997;-62
2023/12/05 08:32:00;;;;;;;21.10;13.40;;;;;;;7.05;93.55;101512.77;108074;1288;21991;-61
2023/12/05 08:34:26;;;;;;;24.60;13.50;;;;;;;7.15;93.84;101511.77;108067;1281;21990;-61
2023/12/05 08:36:52;;;;;;;22.90;14.40;;;;;;;7.26;94.07;101499.40;107841;1288;21991;-62
2023/12/05 08:39:17;;;;;;;22.00;13.90;;;;;;;7.40;94.84;101496.87;108036;1288;21986;-63
2023/12/05 08:41:43;;;;;;;20.90;13.70;;;;;;;7.49;94.16;101498.08;108000;1285;21987;-61
2023/12/05 08:44:09;;;;;;;24.30;14.60;;;;;;;7.57;94.42;101500.66;108052;1283;21989;-61
2023/12/05 08:46:35;;;;;;;23.10;13.60;;;;;;;7.69;94.97;101499.84;108082;1288;22006;-63
2023/12/05 08:49:00;;;;;;;24.00;13.80;;;;;;;7.76;94.14;101501.88;108117;1288;21991;-62
2023/12/05 08:51:26;;;;;;;21.00;12.30;;;;;;;7.76;93.40;101503.80;108066;1287;21978;-63
2023/12/05 08:53:52;;;;;;;20.10;13.20;;;;;;;7.81;93.76;101497.27;108075;1288;21983;-62
2023/12/05 08:56:18;;;;;;;20.50;12.80;;;;;;;7.89;94.11;101496.51;108086;1283;21994;-63
2023/12/05 08:58:43;;;;;;;20.20;12.90;;;;;;;7.95;94.01;101495.37;108062;1288;22001;-63
2023/12/05 09:01:10;;;;;;;19.60;12.80;;;;;;;7.97;93.16;101503.27;108101;1289;21996;-61
2023/12/05 09:03:36;;;;;;;19.10;13.20;;;;;;;7.95;92.75;101506.55;108052;1288;21996;-62
2023/12/05 09:06:02;;;;;;;25.20;14.20;;;;;;;7.94;92.63;101508.65;108076;1284;21987;-61
2023/12/05 09:08:29;;;;;;;19.60;12.30;;;;;;;7.98;92.87;101507.15;108084;1288;21979;-63
2023/12/05 09:10:57;;;;;;;21.40;13.60;;;;;;;8.04;93.19;101500.77;108074;1286;21989;-62
2023/12/05 09:13:23;;;;;;;21.80;12.20;;;;;;;8.08;93.29;101494.02;108088;1288;22046;-62
2023/12/05 09:15:49;;;;;;;25.90;12.40;;;;;;;8.10;93.43;101485.65;108105;1280;21987;-65
2023/12/05 09:18:15;;;;;;;19.50;11.50;;;;;;;8.15;94.61;101478.39;108073;1288;21987;-64
2023/12/05 09:20:41;;;;;;;20.80;11.90;;;;;;;8.24;95.11;101468.02;108103;1281;21991;-64
2023/12/05 09:23:07;;;;;;;20.00;11.70;;;;;;;8.30;95.08;101461.64;108104;1287;22246;-65
2023/12/05 09:25:33;;;;;;;18.30;11.20;;;;;;;8.33;94.57;101448.41;107923;1288;21987;-64
2023/12/05 09:27:58;;;;;;;18.90;11.50;;;;;;;8.33;93.98;101438.27;108070;1285;21989;-61
2023/12/05 09:30:24;;;;;;;16.20;10.20;;;;;;;8.31;93.52;101431.94;108119;1280;21991;-61
2023/12/05 09:32:50;;;;;;;17.30;9.70;;;;;;;8.27;92.98;101426.98;108069;1288;22023;-61
2023/12/05 09:35:15;;;;;;;16.80;9.30;;;;;;;8.25;92.97;101426.25;108060;1288;21989;-61
2023/12/05 09:37:41;;;;;;;15.60;8.90;;;;;;;8.23;92.80;101420.10;108086;1288;21986;-62
2023/12/05 09:40:07;;;;;;;17.60;9.00;;;;;;;8.22;92.89;101413.43;108073;1283;21983;-61
2023/12/05 09:42:33;;;;;;;16.80;9.10;;;;;;;8.21;92.69;101394.38;108166;1287;22048;-64
2023/12/05 09:44:59;;;;;;;14.30;8.60;;;;;;;8.18;92.24;101393.45;107843;1288;22102;-64
2023/12/05 09:47:24;;;;;;;12.90;8.70;;;;;;;8.14;91.63;101398.30;108052;1287;21997;-61
2023/12/05 09:49:50;;;;;;;12.00;8.10;;;;;;;8.10;91.29;101392.66;107883;1289;24886;-61
2023/12/05 09:52:15;;;;;;;15.90;8.20;;;;;;;8.08;91.30;101394.02;107919;1290;22000;-61
2023/12/05 09:54:44;;;;;;;13.30;7.90;;;;;;;8.03;90.79;101397.63;107993;1288;21991;-62
2023/12/05 09:57:11;;;;;;;14.00;8.50;;;;;;;8.00;90.92;101408.93;108095;1288;21992;-64
2023/12/05 09:59:37;;;;;;;14.40;8.00;;;;;;;7.96;90.59;101406.77;108078;1288;21991;-63
2023/12/05 10:02:02;;;;;;;11.70;7.30;;;;;;;7.95;90.75;101402.40;108071;1288;21991;-62
2023/12/05 10:04:29;;;;;;;11.40;7.10;;;;;;;7.96;91.20;101394.72;107819;1287;21990;-61
2023/12/05 10:06:58;;;;;;;11.60;7.30;;;;;;;7.98;91.34;101390.21;108078;1281;22033;-63
2023/12/05 10:09:28;;;;;;;12.20;7.20;;;;;;;7.99;90.95;101385.15;107885;1289;22456;-64
2023/12/05 10:11:54;;;;;;;12.30;7.10;;;;;;;8.00;90.78;101381.31;108063;1288;22016;-61
2023/12/05 10:14:20;;;;;;;12.40;6.80;;;;;;;8.02;90.94;101382.56;108106;1278;21989;-61
2023/12/05 10:16:45;;;;;;;12.20;6.60;;;;;;;8.05;91.14;101378.59;108102;1288;21989;-61
2023/12/05 10:19:11;;;;;;;10.80;6.30;;;;;;;8.09;90.82;101375.16;107157;1289;1006492;-63
2023/12/05 10:21:37;;;;;;;10.30;6.50;;;;;;;8.09;91.00;101374.29;107689;1287;22049;-61
2023/12/05 10:24:03;;;;;;;12.20;6.30;;;;;;;8.11;90.64;101377.81;107985;1289;22001;-61
2023/12/05 10:26:29;;;;;;;13.90;6.80;;;;;;;8.15;90.72;101390.27;107893;1282;21998;-64
2023/12/05 10:28:55;;;;;;;11.80;6.30;;;;;;;8.17;90.40;101394.49;108072;1283;22040;-61
2023/12/05 10:31:21;;;;;;;9.50;6.30;;;;;;;8.17;89.83;101397.64;108066;1287;21988;-64
2023/12/05 10:33:48;;;;;;;10.60;6.90;;;;;;;8.19;89.90;101392.25;108083;1288;21987;-61
2023/12/05 10:36:14;;;;;;;10.60;6.80;;;;;;;8.18;89.60;101373.35;108093;1288;21991;-61
2023/12/05 10:38:43;;;;;;;12.50;7.00;;;;;;;8.17;89.38;101356.73;108039;1288;21998;-64
2023/12/05 10:41:09;;;;;;;11.90;6.50;;;;;;;8.20;89.56;101363.58;108145;1288;22147;-61
2023/12/05 10:43:35;;;;;;;10.40;6.50;;;;;;;8.20;89.33;101364.98;108041;1283;21985;-62
2023/12/05 10:46:03;;;;;;;11.20;5.70;;;;;;;8.18;88.05;101364.60;108045;1288;21991;-62
2023/12/05 10:48:30;;;;;;;11.20;6.00;;;;;;;8.19;88.06;101364.63;107927;1276;21984;-61
2023/12/05 10:50:56;;;;;;;9.50;5.90;;;;;;;8.21;88.32;101373.04;107901;1288;21993;-63
2023/12/05 10:53:22;;;;;;;11.10;6.80;;;;;;;8.21;87.65;101376.71;107969;1289;21995;-63
2023/12/05 10:55:47;;;;;;;9.60;5.90;;;;;;;8.22;87.73;101372.35;108081;1289;22007;-61
2023/12/05 10:58:14;;;;;;;9.60;6.10;;;;;;;8.23;87.37;101371.48;108012;1289;22009;-64
2023/12/05 11:00:40;;;;;;;10.60;6.20;;;;;;;8.24;87.40;101374.48;108000;1289;22000;-61
2023/12/05 11:03:05;;;;;;;10.60;6.00;;;;;;;8.27;88.04;101371.90;107236;1289;1002429;-62
2023/12/05 11:05:32;;;;;;;9.20;5.90;;;;;;;8.28;88.09;101364.05;108000;1289;21987;-63